^^
Meteo Knjazevac Station Historical Data
Daily Summary for May 31, 2021 Units:  Metric    English   Both
Daily Weekly Monthly Yearly Custom
  High: Low: Average:
Temperature: 19.1 °C 6.1 °C 13.1 °C
Dew Point: 11.8 °C 5.5 °C 9.3 °C
Humidity: 99% 57% 80%
Wind Speed: 16.1km/h 0km/h 5.3km/h
Wind Gust: 32.2km/h - -
Wind- - WSW
Pressure: 1019.2 hPa 1015.8 hPa -
Precipitation: 0 mm    
Historical Graphs
 
 
Tabular Data for May 31, 2021
Time Temperature Dew Point Pressure Wind Wind Speed Wind Gust Humidity Rainfall Rate (Hourly) solar Conditions
00:00 9.5 °C 8.6 °C 1019.2 hPa Calm   3.2 km/h 94% 0 mm 0 W/m2
00:10 9.3 °C 8.4 °C 1019.2 hPa WSW 1.6 km/h 3.2 km/h 94% 0 mm 0 W/m2
00:20 9 °C 8.1 °C 1019.2 hPa Calm   3.2 km/h 94% 0 mm 0 W/m2
00:30 8.7 °C 7.8 °C 1019.2 hPa Calm   3.2 km/h 94% 0 mm 0 W/m2
00:40 8.5 °C 7.6 °C 1019.2 hPa NW 1.6 km/h 3.2 km/h 94% 0 mm 0 W/m2
00:50 8.3 °C 7.4 °C 1019.2 hPa Calm   3.2 km/h 94% 0 mm 0 W/m2
01:00 8.2 °C 7.4 °C 1019.2 hPa NE 1.6 km/h 3.2 km/h 95% 0 mm 0 W/m2
01:10 8.1 °C 7.3 °C 1019.2 hPa Calm   1.6 km/h 95% 0 mm 0 W/m2
01:20 8 °C 7.2 °C 1019.2 hPa Calm   3.2 km/h 95% 0 mm 0 W/m2
01:30 7.8 °C 7.2 °C 1019.2 hPa SW 1.6 km/h 6.4 km/h 96% 0 mm 0 W/m2
01:40 7.8 °C 7.2 °C 1019.2 hPa Calm   3.2 km/h 96% 0 mm 0 W/m2
01:50 7.7 °C 7.1 °C 1019.2 hPa Calm   3.2 km/h 96% 0 mm 0 W/m2
02:00 7.6 °C 7 °C 1019.2 hPa Calm   4.8 km/h 96% 0 mm 0 W/m2
02:10 7.5 °C 6.9 °C 1018.8 hPa Calm   3.2 km/h 96% 0 mm 0 W/m2
02:20 7.5 °C 6.9 °C 1018.8 hPa Calm   3.2 km/h 96% 0 mm 0 W/m2
02:30 7.3 °C 6.7 °C 1018.8 hPa Calm   3.2 km/h 96% 0 mm 0 W/m2
02:40 7.3 °C 6.7 °C 1018.8 hPa Calm   3.2 km/h 96% 0 mm 0 W/m2
02:50 7.2 °C 6.6 °C 1018.8 hPa NE 1.6 km/h 3.2 km/h 96% 0 mm 0 W/m2
03:00 7.2 °C 6.9 °C 1018.8 hPa Calm   8 km/h 98% 0 mm 0 W/m2
03:10 7.1 °C 6.8 °C 1018.8 hPa Calm   3.2 km/h 98% 0 mm 0 W/m2
03:20 7.1 °C 6.8 °C 1018.5 hPa SE 1.6 km/h 4.8 km/h 98% 0 mm 0 W/m2
03:30 7.1 °C 6.8 °C 1018.5 hPa Calm   4.8 km/h 98% 0 mm 0 W/m2
03:40 6.9 °C 6.3 °C 1018.5 hPa Calm   3.2 km/h 96% 0 mm 0 W/m2
03:50 6.8 °C 6.2 °C 1018.5 hPa Calm   4.8 km/h 96% 0 mm 0 W/m2
04:00 6.7 °C 6.4 °C 1018.5 hPa Calm   4.8 km/h 98% 0 mm 0 W/m2
04:10 6.7 °C 6.4 °C 1018.5 hPa Calm   3.2 km/h 98% 0 mm 0 W/m2
04:20 6.7 °C 6.4 °C 1018.5 hPa Calm   3.2 km/h 98% 0 mm 0 W/m2
04:30 6.7 °C 6.4 °C 1018.5 hPa Calm   3.2 km/h 98% 0 mm 0 W/m2
04:40 6.5 °C 6.2 °C 1018.5 hPa Calm   3.2 km/h 98% 0 mm 0 W/m2
04:50 6.5 °C 6.2 °C 1018.5 hPa Calm   3.2 km/h 98% 0 mm 0 W/m2
05:00 6.4 °C 6.1 °C 1018.5 hPa Calm   3.2 km/h 98% 0 mm 6 W/m2
05:10 6.1 °C 5.5 °C 1018.5 hPa Calm   4.8 km/h 96% 0 mm 12 W/m2
05:20 6.1 °C 5.8 °C 1018.5 hPa Calm   3.2 km/h 98% 0 mm 20 W/m2
05:30 6.1 °C 5.8 °C 1018.5 hPa Calm   4.8 km/h 98% 0 mm 29 W/m2
05:40 6.1 °C 5.9 °C 1018.8 hPa Calm   4.8 km/h 99% 0 mm 37 W/m2
05:50 6.2 °C 6.1 °C 1018.8 hPa WNW 1.6 km/h 3.2 km/h 99% 0 mm 69 W/m2
06:00 6.3 °C 6.2 °C 1018.8 hPa SW 3.2 km/h 6.4 km/h 99% 0 mm 94 W/m2
06:10 6.5 °C 6.3 °C 1018.8 hPa Calm   3.2 km/h 99% 0 mm 118 W/m2
06:20 6.7 °C 6.6 °C 1018.8 hPa Calm   3.2 km/h 99% 0 mm 140 W/m2
06:30 7 °C 6.8 °C 1018.8 hPa Calm   3.2 km/h 99% 0 mm 168 W/m2
06:40 7.4 °C 7.3 °C 1018.8 hPa East 3.2 km/h 8 km/h 99% 0 mm 195 W/m2
06:50 7.9 °C 7.8 °C 1018.8 hPa ESE 1.6 km/h 8 km/h 99% 0 mm 228 W/m2
07:00 8.3 °C 8.2 °C 1018.8 hPa Calm   8 km/h 99% 0 mm 258 W/m2
07:10 8.5 °C 8.3 °C 1018.8 hPa Calm   4.8 km/h 99% 0 mm 295 W/m2
07:20 8.9 °C 8.8 °C 1018.8 hPa SE 4.8 km/h 9.7 km/h 99% 0 mm 330 W/m2
07:30 9.4 °C 9.2 °C 1018.8 hPa SSE 3.2 km/h 8 km/h 99% 0 mm 364 W/m2
07:40 9.8 °C 9.5 °C 1018.8 hPa SSE 8 km/h 11.3 km/h 98% 0 mm 398 W/m2
07:50 10.3 °C 9.7 °C 1018.5 hPa ESE 4.8 km/h 12.9 km/h 96% 0 mm 439 W/m2
08:00 10.6 °C 9.8 °C 1018.5 hPa SSE 8 km/h 12.9 km/h 95% 0 mm 478 W/m2
08:10 11 °C 10.1 °C 1018.5 hPa SE 4.8 km/h 12.9 km/h 94% 0 mm 509 W/m2
08:20 11.4 °C 10.3 °C 1018.5 hPa SE 4.8 km/h 11.3 km/h 93% 0 mm 541 W/m2
08:30 11.7 °C 10.1 °C 1018.5 hPa SSE 4.8 km/h 12.9 km/h 90% 0 mm 574 W/m2
08:40 12 °C 10.2 °C 1018.5 hPa ESE 1.6 km/h 11.3 km/h 89% 0 mm 604 W/m2
08:50 12.7 °C 10.4 °C 1018.2 hPa SSE 3.2 km/h 9.7 km/h 86% 0 mm 642 W/m2
09:00 13.7 °C 11.1 °C 1018.5 hPa SSE 1.6 km/h 11.3 km/h 84% 0 mm 670 W/m2
09:10 14.6 °C 11.4 °C 1018.5 hPa South 3.2 km/h 9.7 km/h 81% 0 mm 696 W/m2
09:20 15.2 °C 11.4 °C 1018.2 hPa SW 11.3 km/h 14.5 km/h 78% 0 mm 192 W/m2
09:30 14.8 °C 10.8 °C 1018.2 hPa WSW 3.2 km/h 11.3 km/h 77% 0 mm 746 W/m2
09:40 15.4 °C 11.4 °C 1018.2 hPa West 9.7 km/h 16.1 km/h 77% 0 mm 769 W/m2
09:50 15.8 °C 11.4 °C 1018.2 hPa West 9.7 km/h 19.3 km/h 75% 0 mm 792 W/m2
10:00 16.2 °C 11.6 °C 1017.8 hPa WSW 11.3 km/h 24.1 km/h 74% 0 mm 749 W/m2
10:10 16.4 °C 11.6 °C 1017.8 hPa West 12.9 km/h 24.1 km/h 73% 0 mm 833 W/m2
10:20 16.6 °C 11.6 °C 1017.8 hPa West 14.5 km/h 25.7 km/h 72% 0 mm 852 W/m2
10:30 16.7 °C 11.2 °C 1017.8 hPa West 14.5 km/h 24.1 km/h 70% 0 mm 349 W/m2
10:40 16.4 °C 10.9 °C 1017.8 hPa West 14.5 km/h 22.5 km/h 70% 0 mm 326 W/m2
10:50 16.6 °C 11.1 °C 1017.8 hPa West 16.1 km/h 24.1 km/h 70% 0 mm 900 W/m2
11:00 17 °C 11.3 °C 1017.8 hPa West 12.9 km/h 24.1 km/h 69% 0 mm 293 W/m2
11:10 17 °C 11.3 °C 1017.8 hPa West 8 km/h 20.9 km/h 69% 0 mm 209 W/m2
11:20 16.8 °C 11.1 °C 1017.5 hPa West 8 km/h 19.3 km/h 69% 0 mm 936 W/m2
11:30 17 °C 10.8 °C 1017.5 hPa West 12.9 km/h 20.9 km/h 67% 0 mm 193 W/m2
11:40 16.8 °C 10.9 °C 1017.5 hPa West 4.8 km/h 24.1 km/h 68% 0 mm 953 W/m2
11:50 16.9 °C 10.7 °C 1017.2 hPa West 11.3 km/h 29 km/h 67% 0 mm 441 W/m2
12:00 17.3 °C 11.1 °C 1017.2 hPa WNW 8 km/h 20.9 km/h 67% 0 mm 403 W/m2
12:10 17.6 °C 10.7 °C 1017.2 hPa WNW 3.2 km/h 14.5 km/h 64% 0 mm 258 W/m2
12:20 17.5 °C 10.6 °C 1017.2 hPa West 3.2 km/h 11.3 km/h 64% 0 mm 455 W/m2
12:30 17.6 °C 10.7 °C 1017.2 hPa Calm   11.3 km/h 64% 0 mm 229 W/m2
12:40 17.5 °C 11.3 °C 1016.8 hPa NNE 4.8 km/h 12.9 km/h 67% 0 mm 237 W/m2
12:50 17.3 °C 11.1 °C 1016.8 hPa North 1.6 km/h 11.3 km/h 67% 0 mm 175 W/m2
13:00 17.2 °C 11 °C 1016.8 hPa NE 1.6 km/h 12.9 km/h 67% 0 mm 166 W/m2
13:10 16.9 °C 10.7 °C 1016.8 hPa NNE 1.6 km/h 12.9 km/h 67% 0 mm 226 W/m2
13:20 16.9 °C 10.7 °C 1016.8 hPa SE 3.2 km/h 9.7 km/h 67% 0 mm 947 W/m2
13:30 17.5 °C 10.8 °C 1016.5 hPa South 4.8 km/h 12.9 km/h 65% 0 mm 543 W/m2
13:40 17.8 °C 10.9 °C 1016.5 hPa West 11.3 km/h 24.1 km/h 64% 0 mm 928 W/m2
13:50 18.5 °C 11.6 °C 1016.5 hPa West 9.7 km/h 24.1 km/h 64% 0 mm 916 W/m2
14:00 18.9 °C 11.5 °C 1016.1 hPa West 14.5 km/h 22.5 km/h 62% 0 mm 903 W/m2
14:10 19.1 °C 11.7 °C 1016.1 hPa WNW 11.3 km/h 22.5 km/h 62% 0 mm 889 W/m2
14:20 19.1 °C 11.2 °C 1016.1 hPa West 12.9 km/h 24.1 km/h 60% 0 mm 873 W/m2
14:30 19 °C 10.3 °C 1016.1 hPa West 16.1 km/h 27.4 km/h 57% 0 mm 834 W/m2
14:40 18.8 °C 10.6 °C 1016.1 hPa West 12.9 km/h 27.4 km/h 59% 0 mm 568 W/m2
14:50 18.7 °C 10.5 °C 1016.1 hPa West 11.3 km/h 22.5 km/h 59% 0 mm 747 W/m2
15:00 18.8 °C 10.6 °C 1015.8 hPa West 11.3 km/h 24.1 km/h 59% 0 mm 570 W/m2
15:10 18.8 °C 10.9 °C 1015.8 hPa WNW 9.7 km/h 32.2 km/h 60% 0 mm 614 W/m2
15:20 18.4 °C 10.9 °C 1016.1 hPa WNW 12.9 km/h 25.7 km/h 62% 0 mm 205 W/m2
15:30 17.3 °C 11.3 °C 1016.1 hPa West 9.7 km/h 25.7 km/h 68% 0 mm 210 W/m2
15:40 16.8 °C 11.3 °C 1016.1 hPa WNW 4.8 km/h 19.3 km/h 70% 0 mm 235 W/m2
15:50 16.9 °C 11.8 °C 1016.1 hPa WNW 4.8 km/h 14.5 km/h 72% 0 mm 412 W/m2
16:00 17.3 °C 11.2 °C 1016.1 hPa WNW 4.8 km/h 17.7 km/h 67% 0 mm 649 W/m2
16:10 18.2 °C 11.3 °C 1016.1 hPa NNW 12.9 km/h 22.5 km/h 64% 0 mm 622 W/m2
16:20 18.6 °C 11.2 °C 1016.1 hPa NNW 9.7 km/h 22.5 km/h 62% 0 mm 195 W/m2
16:30 18.3 °C 10.9 °C 1016.1 hPa NNW 4.8 km/h 19.3 km/h 62% 0 mm 404 W/m2
16:40 18.7 °C 11.5 °C 1016.1 hPa WNW 9.7 km/h 22.5 km/h 63% 0 mm 380 W/m2
16:50 18.8 °C 11.4 °C 1016.1 hPa NW 4.8 km/h 27.4 km/h 62% 0 mm 299 W/m2
17:00 18.5 °C 10.6 °C 1016.1 hPa WNW 8 km/h 19.3 km/h 60% 0 mm 235 W/m2
17:10 18.3 °C 11.1 °C 1016.1 hPa NW 9.7 km/h 22.5 km/h 63% 0 mm 216 W/m2
17:20 18.1 °C 11.2 °C 1016.1 hPa WNW 8 km/h 20.9 km/h 64% 0 mm 219 W/m2
17:30 17.8 °C 10.4 °C 1016.1 hPa WNW 11.3 km/h 24.1 km/h 62% 0 mm 105 W/m2
17:40 17.4 °C 9.6 °C 1016.1 hPa NW 8 km/h 19.3 km/h 60% 0 mm 197 W/m2
17:50 17.5 °C 10.1 °C 1016.1 hPa NW 11.3 km/h 20.9 km/h 62% 0 mm 322 W/m2
18:00 18.1 °C 10.7 °C 1016.1 hPa WNW 12.9 km/h 25.7 km/h 62% 0 mm 291 W/m2
18:10 18 °C 10.6 °C 1016.1 hPa West 9.7 km/h 24.1 km/h 62% 0 mm 261 W/m2
18:20 17.9 °C 10.5 °C 1016.1 hPa West 8 km/h 20.9 km/h 62% 0 mm 232 W/m2
18:30 17.9 °C 10 °C 1016.5 hPa WNW 9.7 km/h 14.5 km/h 60% 0 mm 169 W/m2
18:40 17.5 °C 10.1 °C 1016.5 hPa NW 9.7 km/h 20.9 km/h 62% 0 mm 98 W/m2
18:50 17.1 °C 10.2 °C 1016.5 hPa WNW 4.8 km/h 19.3 km/h 64% 0 mm 148 W/m2
19:00 17.1 °C 10.2 °C 1016.5 hPa West 8 km/h 16.1 km/h 64% 0 mm 105 W/m2
19:10 16.6 °C 9.9 °C 1016.5 hPa WNW 12.9 km/h 19.3 km/h 65% 0 mm 39 W/m2
19:20 15.9 °C 9.8 °C 1016.5 hPa WNW 4.8 km/h 14.5 km/h 67% 0 mm 33 W/m2
19:30 15.4 °C 9.7 °C 1016.5 hPa WNW 4.8 km/h 14.5 km/h 69% 0 mm 19 W/m2
19:40 15 °C 9.6 °C 1016.8 hPa West 8 km/h 11.3 km/h 70% 0 mm 10 W/m2
19:50 14.7 °C 9.7 °C 1016.8 hPa West 8 km/h 9.7 km/h 72% 0 mm 6 W/m2
20:00 14.4 °C 9.6 °C 1016.5 hPa West 8 km/h 11.3 km/h 73% 0 mm 4 W/m2
20:10 14.2 °C 9.6 °C 1016.5 hPa WSW 4.8 km/h 9.7 km/h 74% 0 mm 0 W/m2
20:20 13.9 °C 9.6 °C 1016.5 hPa West 3.2 km/h 9.7 km/h 75% 0 mm 0 W/m2
20:30 13.7 °C 9.3 °C 1016.5 hPa West 4.8 km/h 11.3 km/h 75% 0 mm 0 W/m2
20:40 13.5 °C 9.6 °C 1016.8 hPa WSW 3.2 km/h 8 km/h 77% 0 mm 0 W/m2
20:50 13.4 °C 9.4 °C 1016.8 hPa WSW 3.2 km/h 6.4 km/h 77% 0 mm 0 W/m2
Knjazevac, Serbia
Compliments of Weather Underground - 2 mb